Time;durP1;ratioP1;P1;durP2;ratioP2;P2;SDS_P1;SDS_P2;PMS_P1;PMS_P2;Temp;Humidity;BMP_temperature;BMP_pressure;BME280_temperature;BME280_humidity;BME280_pressure;Samples;Min_cycle;Max_cycle;Signal;HPM_P1;HPM_P2
2022/06/11 00:01:25;;;;;;;4.63;3.97;;;17.40;99.90;;;;;;5060729;28;20036;-83
2022/06/11 00:03:55;;;;;;;8.88;3.88;;;17.40;99.90;;;;;;5095290;28;20384;-83
2022/06/11 00:06:23;;;;;;;6.55;3.58;;;17.30;99.90;;;;;;5095639;28;20101;-83
2022/06/11 00:08:50;;;;;;;7.00;4.00;;;;;;;;;;5076918;28;20048;-83
2022/06/11 00:11:17;;;;;;;6.55;3.83;;;;;;;;;;5060275;28;20059;-83
2022/06/11 00:13:43;;;;;;;9.05;3.70;;;;;;;;;;5094940;28;20131;-82
2022/06/11 00:16:10;;;;;;;4.63;4.15;;;16.90;99.90;;;;;;5076516;28;20078;-83
2022/06/11 00:18:37;;;;;;;5.25;3.15;;;17.00;99.90;;;;;;5076819;28;20081;-83
2022/06/11 00:21:04;;;;;;;10.15;3.00;;;16.60;99.90;;;;;;5077040;28;20071;-82
2022/06/11 00:23:30;;;;;;;9.77;2.55;;;;;;;;;;5061030;28;20095;-87
2022/06/11 00:25:56;;;;;;;12.32;4.40;;;;;;;;;;5060591;28;20090;-87
2022/06/11 00:28:22;;;;;;;5.72;2.88;;;;;;;;;;5077393;28;20036;-86
2022/06/11 00:30:48;;;;;;;6.22;3.30;;;;;;;;;;5095325;28;20050;-82
2022/06/11 00:33:14;;;;;;;6.38;2.85;;;;;;;;;;5095750;28;20377;-83
2022/06/11 00:35:41;;;;;;;4.97;2.65;;;16.70;99.90;;;;;;5077587;28;20101;-84
2022/06/11 00:38:08;;;;;;;11.43;3.22;;;16.60;99.90;;;;;;5060263;28;20043;-88
2022/06/11 00:40:36;;;;;;;7.13;3.22;;;16.50;99.90;;;;;;5076818;28;20507;-86
2022/06/11 00:43:04;;;;;;;5.22;2.78;;;16.50;99.90;;;;;;5076742;28;20044;-85
2022/06/11 00:46:00;;;;;;;7.07;3.03;;;16.50;99.90;;;;;;5094686;28;20089;-85
2022/06/11 00:48:39;;;;;;;7.50;2.65;;;16.50;99.90;;;;;;5059909;28;20050;-83
2022/06/11 00:51:11;;;;;;;5.70;2.85;;;;;;;;;;5059715;28;20488;-82
2022/06/11 00:53:45;;;;;;;12.18;3.50;;;16.10;99.90;;;;;;5076446;28;20048;-86
2022/06/11 00:56:40;;;;;;;;;;;16.40;99.90;;;;;;5060522;28;20058;-87
2022/06/11 00:59:10;;;;;;;8.07;3.97;;;16.30;99.90;;;;;;4992444;28;19944;-87
2022/06/11 01:01:37;;;;;;;13.23;3.50;;;;;;;;;;4971969;28;20117;-82
2022/06/11 01:04:23;;;;;;;8.82;3.60;;;16.10;99.90;;;;;;4979872;28;20108;-85
2022/06/11 01:06:56;;;;;;;5.38;2.95;;;16.20;99.90;;;;;;4995402;28;20070;-84
2022/06/11 01:09:35;;;;;;;6.20;3.05;;;16.10;99.90;;;;;;4995440;28;20127;-83
2022/06/11 01:12:19;;;;;;;11.50;3.90;;;;;;;;;;4995392;28;20053;-85
2022/06/11 01:14:46;;;;;;;;;;;15.90;99.90;;;;;;4996139;28;20182;-84
2022/06/11 01:17:33;;;;;;;5.45;2.83;;;15.80;99.90;;;;;;4977153;28;20438;-89
2022/06/11 01:19:59;;;;;;;5.88;2.75;;;;;;;;;;4995153;28;20106;-82
2022/06/11 01:22:52;;;;;;;6.60;3.05;;;15.90;99.90;;;;;;4995294;28;20057;-82
2022/06/11 01:25:18;;;;;;;8.13;2.70;;;;;;;;;;4995138;28;20046;-83
2022/06/11 01:27:47;;;;;;;8.07;3.15;;;;;;;;;;4978907;28;20136;-83
2022/06/11 01:30:21;;;;;;;7.38;3.03;;;15.80;99.90;;;;;;4978967;28;20064;-84
2022/06/11 01:32:48;;;;;;;6.80;2.97;;;;;;;;;;4978834;28;20506;-82
2022/06/11 01:35:17;;;;;;;13.57;3.55;;;;;;;;;;5008872;28;20053;-82
2022/06/11 01:38:04;;;;;;;8.77;2.70;;;15.70;99.90;;;;;;5075325;28;20059;-83
2022/06/11 01:40:49;;;;;;;5.82;2.72;;;;;;;;;;5058429;28;20032;-83
2022/06/11 01:43:18;;;;;;;9.27;3.00;;;15.60;99.90;;;;;;5058437;28;20051;-82
2022/06/11 01:45:45;;;;;;;7.43;3.08;;;15.60;99.90;;;;;;5058395;28;20040;-83
2022/06/11 01:48:17;;;;;;;12.15;2.45;;;15.70;99.90;;;;;;5058592;28;20048;-82
2022/06/11 01:50:58;;;;;;;14.23;3.05;;;15.40;99.90;;;;;;5058461;28;20044;-82
2022/06/11 01:53:42;;;;;;;8.18;3.58;;;15.40;99.90;;;;;;5075139;28;20047;-83
2022/06/11 01:56:26;;;;;;;7.90;3.05;;;15.60;99.90;;;;;;5058500;28;20040;-82
2022/06/11 01:59:01;;;;;;;7.10;3.00;;;15.40;99.90;;;;;;5058596;28;20070;-82
2022/06/11 02:01:45;;;;;;;17.25;6.00;;;15.40;99.90;;;;;;5075311;28;20401;-83
2022/06/11 02:04:15;;;;;;;;;;;15.40;99.90;;;;;;5075394;28;20086;-82
2022/06/11 02:06:57;;;;;;;8.23;3.35;;;15.20;99.90;;;;;;5075767;28;20338;-82
2022/06/11 02:10:00;;;;;;;7.63;2.92;;;15.40;99.90;;;;;;5059028;28;20071;-82
2022/06/11 02:12:37;;;;;;;9.95;3.42;;;15.00;99.90;;;;;;5074821;28;20059;-83
2022/06/11 02:15:18;;;;;;;8.73;2.72;;;15.20;99.90;;;;;;5058181;28;20089;-83
2022/06/11 02:17:49;;;;;;;14.40;3.13;;;15.00;99.90;;;;;;5058926;28;20130;-91
2022/06/11 02:20:20;;;;;;;6.85;2.65;;;15.10;99.90;;;;;;5059086;28;20032;-86
2022/06/11 02:22:58;;;;;;;9.40;2.90;;;15.00;99.90;;;;;;5059397;28;20461;-89
2022/06/11 02:25:29;;;;;;;9.57;3.80;;;15.10;99.90;;;;;;5059100;28;20457;-90
2022/06/11 02:27:59;;;;;;;8.82;2.65;;;15.00;99.90;;;;;;5059050;28;20040;-89
2022/06/11 02:30:28;;;;;;;6.30;2.85;;;15.00;99.90;;;;;;5076223;28;20048;-91
2022/06/11 02:32:54;;;;;;;8.45;3.13;;;;;;;;;;5062899;28;20123;-91
2022/06/11 02:35:49;;;;;;;10.73;3.35;;;14.90;99.90;;;;;;5062342;28;20060;-88
2022/06/11 02:38:20;;;;;;;9.82;3.28;;;15.00;99.90;;;;;;4999074;28;20049;-90
2022/06/11 02:40:50;;;;;;;12.68;3.03;;;14.90;99.90;;;;;;4982634;28;20054;-90
2022/06/11 02:43:17;;;;;;;9.25;4.05;;;14.80;99.90;;;;;;4999291;28;20438;-88
2022/06/11 02:45:44;;;;;;;11.57;3.42;;;;;;;;;;4998675;28;20046;-89
2022/06/11 02:48:11;;;;;;;8.77;2.80;;;14.90;99.90;;;;;;4998260;28;20128;-88
2022/06/11 02:50:37;;;;;;;9.25;3.00;;;;;;;;;;4981661;28;20052;-83
2022/06/11 02:53:05;;;;;;;9.50;3.30;;;;;;;;;;4998096;28;20506;-83
2022/06/11 02:55:32;;;;;;;15.27;2.85;;;14.90;99.90;;;;;;4998602;28;20053;-83
2022/06/11 02:58:01;;;;;;;8.82;3.22;;;;;;;;;;4997798;28;20048;-83
2022/06/11 03:00:31;;;;;;;9.65;4.05;;;15.00;99.90;;;;;;4997541;28;20052;-83
2022/06/11 03:02:58;;;;;;;6.47;2.90;;;14.80;99.90;;;;;;4981138;28;20050;-83
2022/06/11 03:05:28;;;;;;;11.90;3.50;;;14.90;99.90;;;;;;4981549;28;20050;-83
2022/06/11 03:07:54;;;;;;;7.88;2.78;;;;;;;;;;4997435;28;20212;-83
2022/06/11 03:10:23;;;;;;;13.85;3.33;;;14.90;99.90;;;;;;4997445;28;20498;-82
2022/06/11 03:12:49;;;;;;;7.07;2.88;;;;;;;;;;4979899;28;20149;-83
2022/06/11 03:15:17;;;;;;;7.47;3.40;;;14.70;99.90;;;;;;5004209;28;20055;-83
2022/06/11 03:17:43;;;;;;;11.77;4.32;;;;;;;;;;5057496;28;20492;-82
2022/06/11 03:20:10;;;;;;;13.18;3.50;;;14.50;99.90;;;;;;5058975;28;20086;-83
2022/06/11 03:22:36;;;;;;;6.80;3.00;;;;;;;;;;5040865;28;20139;-82
2022/06/11 03:25:03;;;;;;;13.75;4.70;;;14.60;99.90;;;;;;5040897;28;20045;-82
2022/06/11 03:27:29;;;;;;;9.02;2.88;;;14.70;99.90;;;;;;5057375;28;20047;-82
2022/06/11 03:29:56;;;;;;;13.20;3.70;;;;;;;;;;5040858;28;20123;-82
2022/06/11 03:32:22;;;;;;;12.57;4.40;;;;;;;;;;5058464;28;20388;-82
2022/06/11 03:34:48;;;;;;;9.70;3.53;;;;;;;;;;5040795;28;20568;-82
2022/06/11 03:37:14;;;;;;;9.18;3.63;;;14.30;99.90;;;;;;5041664;28;20044;-82
2022/06/11 03:39:40;;;;;;;12.32;3.83;;;;;;;;;;5057850;28;20146;-82
2022/06/11 03:42:07;;;;;;;19.23;4.13;;;14.40;99.90;;;;;;5056901;28;20044;-83
2022/06/11 03:44:35;;;;;;;9.82;4.78;;;;;;;;;;5057374;28;20060;-82
2022/06/11 03:47:04;;;;;;;13.88;3.67;;;;;;;;;;5057980;28;20044;-82
2022/06/11 03:49:30;;;;;;;12.70;3.35;;;;;;;;;;5056949;28;20041;-82
2022/06/11 03:51:56;;;;;;;11.23;3.38;;;;;;;;;;5040659;28;20501;-82
2022/06/11 03:54:22;;;;;;;11.13;3.30;;;;;;;;;;5057628;28;20033;-83
2022/06/11 03:56:49;;;;;;;8.18;3.15;;;14.30;99.90;;;;;;5040653;28;20051;-83
2022/06/11 03:59:16;;;;;;;12.85;3.33;;;14.50;99.90;;;;;;5057476;28;20046;-82
2022/06/11 04:01:43;;;;;;;14.48;4.13;;;14.20;99.90;;;;;;5040712;28;20556;-86
2022/06/11 04:04:13;;;;;;;11.20;3.47;;;14.30;99.90;;;;;;5057899;28;20071;-88
2022/06/11 04:06:45;;;;;;;10.90;3.42;;;;;;;;;;5041013;28;20124;-84
2022/06/11 04:09:15;;;;;;;10.25;3.08;;;14.30;99.90;;;;;;5056789;28;20489;-84
2022/06/11 04:11:41;;;;;;;9.32;3.15;;;14.10;99.90;;;;;;5045611;28;20078;-84
2022/06/11 04:14:07;;;;;;;6.70;3.28;;;;;;;;;;5057346;28;20071;-86
2022/06/11 04:16:55;;;;;;;10.88;4.30;;;14.30;99.90;;;;;;5077056;28;20039;-84
2022/06/11 04:19:28;;;;;;;12.88;3.67;;;14.30;99.90;;;;;;5077534;28;20044;-89
2022/06/11 04:21:55;;;;;;;11.50;3.88;;;14.40;99.90;;;;;;5077763;28;20046;-90
2022/06/11 04:24:21;;;;;;;11.63;3.92;;;;;;;;;;5060524;28;20044;-87
2022/06/11 04:26:50;;;;;;;16.42;4.57;;;14.30;99.90;;;;;;5077180;28;20392;-82
2022/06/11 04:29:19;;;;;;;9.68;3.78;;;14.20;99.90;;;;;;5059860;28;20044;-83
2022/06/11 04:31:46;;;;;;;14.13;5.57;;;;;;;;;;5059659;28;20039;-82
2022/06/11 04:34:13;;;;;;;10.77;4.57;;;;;;;;;;5076186;28;20059;-83
2022/06/11 04:36:41;;;;;;;12.65;3.92;;;14.30;99.90;;;;;;5076186;28;20051;-83
2022/06/11 04:39:08;;;;;;;16.30;4.38;;;14.60;99.90;;;;;;5059472;28;20036;-83
2022/06/11 04:41:35;;;;;;;14.55;4.57;;;;;;;;;;5059954;28;20480;-82
2022/06/11 04:44:01;;;;;;;11.55;4.32;;;;;;;;;;5076316;28;20464;-83
2022/06/11 04:46:27;;;;;;;8.38;3.60;;;;;;;;;;5075945;28;20051;-83
2022/06/11 04:48:53;;;;;;;8.50;3.50;;;;;;;;;;5059207;28;20514;-82
2022/06/11 04:51:20;;;;;;;9.05;3.80;;;;;;;;;;5075845;28;20044;-83
2022/06/11 04:53:46;;;;;;;14.75;4.00;;;;;;;;;;5076017;28;20093;-83
2022/06/11 04:56:20;;;;;;;13.35;4.70;;;14.80;99.90;;;;;;5059817;28;20044;-83
2022/06/11 04:58:46;;;;;;;13.73;4.32;;;;;;;;;;5060272;28;20089;-82
2022/06/11 05:01:13;;;;;;;9.65;3.90;;;;;;;;;;5060505;28;20048;-83
2022/06/11 05:03:39;;;;;;;15.30;3.92;;;;;;;;;;5060204;28;20134;-82
2022/06/11 05:06:05;;;;;;;11.18;3.83;;;;;;;;;;5077049;28;20036;-83
2022/06/11 05:08:31;;;;;;;18.27;4.28;;;;;;;;;;5076936;28;20058;-82
2022/06/11 05:10:58;;;;;;;16.65;4.30;;;;;;;;;;5076137;28;20530;-83
2022/06/11 05:13:24;;;;;;;18.58;4.60;;;;;;;;;;5059241;28;20044;-82
2022/06/11 05:15:57;;;;;;;15.13;5.05;;;15.20;99.90;;;;;;5060022;28;20044;-83
2022/06/11 05:18:23;;;;;;;16.35;4.63;;;;;;;;;;5059175;28;20047;-82
2022/06/11 05:20:49;;;;;;;15.35;4.70;;;15.10;99.90;;;;;;5059355;28;20043;-83
2022/06/11 05:23:15;;;;;;;18.17;5.40;;;;;;;;;;5075891;28;20078;-83
2022/06/11 05:25:43;;;;;;;14.52;4.88;;;15.30;99.90;;;;;;5059384;28;20050;-82
2022/06/11 05:28:23;;;;;;;20.10;4.57;;;15.30;99.90;;;;;;5075702;28;20555;-82
2022/06/11 05:30:52;;;;;;;17.13;4.75;;;15.40;99.90;;;;;;5075896;28;20058;-84
2022/06/11 05:33:19;;;;;;;17.67;4.30;;;15.30;99.90;;;;;;5058966;28;20047;-83
2022/06/11 05:35:45;;;;;;;10.50;4.88;;;;;;;;;;5059124;28;20040;-82
2022/06/11 05:38:15;;;;;;;23.55;4.97;;;15.50;99.90;;;;;;5075541;28;20089;-83
2022/06/11 05:40:44;;;;;;;19.23;4.63;;;15.60;99.90;;;;;;5059247;28;20446;-84
2022/06/11 05:43:11;;;;;;;15.70;5.47;;;;;;;;;;5075807;28;20408;-85
2022/06/11 05:45:57;;;;;;;14.57;4.82;;;;;;;;;;5075800;28;20040;-84
2022/06/11 05:48:27;;;;;;;22.70;5.82;;;15.70;99.90;;;;;;5075391;28;20043;-79
2022/06/11 05:50:55;;;;;;;14.85;5.30;;;15.70;99.90;;;;;;5075128;28;20052;-79
2022/06/11 05:53:24;;;;;;;19.52;5.53;;;15.60;99.90;;;;;;5075459;28;20117;-79
2022/06/11 05:55:53;;;;;;;25.63;5.57;;;15.80;99.90;;;;;;5075220;28;20048;-83
2022/06/11 05:58:25;;;;;;;16.45;5.70;;;15.80;99.90;;;;;;5059017;28;20376;-84
2022/06/11 06:00:51;;;;;;;29.80;7.10;;;;;;;;;;5058722;28;20043;-85
2022/06/11 06:03:17;;;;;;;20.00;6.15;;;;;;;;;;5075759;28;20051;-88
2022/06/11 06:05:43;;;;;;;19.45;5.50;;;;;;;;;;5064025;28;20412;-90
2022/06/11 06:08:10;;;;;;;17.80;5.43;;;;;;;;;;5065407;28;20112;-88
2022/06/11 06:10:36;;;;;;;23.95;6.22;;;;;;;;;;5065398;28;20047;-86
2022/06/11 06:13:45;;;;;;;30.85;6.63;;;;;;;;;;5080955;28;20078;-87
2022/06/11 06:15:50;;;;;;;20.55;5.80;;;;;;;;;;5098372;28;20044;-85
2022/06/11 06:18:16;;;;;;;20.52;6.03;;;;;;;;;;5062616;28;20048;-86
2022/06/11 06:20:42;;;;;;;21.58;6.00;;;;;;;;;;5062362;28;20044;-90
2022/06/11 06:23:08;;;;;;;20.60;6.32;;;;;;;;;;5097524;28;20083;-88
2022/06/11 06:25:34;;;;;;;25.48;5.65;;;;;;;;;;5088822;28;20082;-82
2022/06/11 06:28:00;;;;;;;20.70;6.38;;;;;;;;;;5079060;28;20044;-82
2022/06/11 06:30:26;;;;;;;17.63;5.07;;;;;;;;;;5078660;28;20048;-84
2022/06/11 06:32:52;;;;;;;26.45;7.43;;;;;;;;;;5078545;28;20439;-83
2022/06/11 06:35:18;;;;;;;15.23;5.38;;;;;;;;;;5078575;28;20048;-83
2022/06/11 06:37:44;;;;;;;14.50;5.28;;;;;;;;;;5062607;28;20048;-82
2022/06/11 06:40:10;;;;;;;16.45;5.20;;;;;;;;;;5078373;28;20044;-83
2022/06/11 06:42:38;;;;;;;17.80;5.82;;;;;;;;;;5062149;28;20135;-84
2022/06/11 06:45:04;;;;;;;28.02;7.90;;;;;;;;;;5061872;28;20036;-84
2022/06/11 06:47:30;;;;;;;23.50;7.88;;;16.80;99.90;;;;;;5078411;28;20067;-83
2022/06/11 06:49:56;;;;;;;23.23;6.95;;;;;;;;;;5061568;28;20483;-83
2022/06/11 06:52:22;;;;;;;21.85;6.85;;;16.90;99.90;;;;;;5078199;28;20048;-85
2022/06/11 06:54:48;;;;;;;18.67;6.18;;;;;;;;;;5078157;28;20046;-86
2022/06/11 06:57:14;;;;;;;20.73;5.50;;;;;;;;;;5061325;28;20044;-86
2022/06/11 06:59:41;;;;;;;18.73;6.05;;;;;;;;;;5061978;28;20055;-86
2022/06/11 07:02:10;;;;;;;29.60;7.20;;;17.00;99.90;;;;;;5078158;28;20040;-85
2022/06/11 07:04:36;;;;;;;21.83;5.65;;;;;;;;;;5061262;28;20492;-87
2022/06/11 07:07:02;;;;;;;18.75;4.95;;;;;;;;;;5078016;28;20122;-85
2022/06/11 07:09:28;;;;;;;18.17;6.20;;;;;;;;;;5077809;28;20047;-86
2022/06/11 07:11:54;;;;;;;16.58;5.35;;;;;;;;;;5061155;28;20060;-86
2022/06/11 07:14:20;;;;;;;20.60;5.93;;;;;;;;;;5061122;28;20072;-86
2022/06/11 07:16:55;;;;;;;22.00;5.57;;;17.20;99.90;;;;;;5060179;28;20044;-86
2022/06/11 07:19:32;;;;;;;21.38;7.43;;;17.50;99.90;;;;;;5060962;28;20040;-86
2022/06/11 07:22:06;;;;;;;16.10;5.20;;;17.50;99.90;;;;;;5061381;28;20040;-88
2022/06/11 07:24:35;;;;;;;23.08;5.38;;;17.50;99.90;;;;;;5060944;28;20086;-88
2022/06/11 07:27:09;;;;;;;20.92;6.95;;;17.70;99.90;;;;;;5061108;28;20048;-84
2022/06/11 07:29:40;;;;;;;26.25;7.70;;;17.80;99.90;;;;;;5060680;28;20040;-85
2022/06/11 07:32:13;;;;;;;19.25;6.70;;;17.40;99.90;;;;;;5077514;28;20519;-88
2022/06/11 07:34:39;;;;;;;18.02;4.10;;;;;;;;;;5069977;28;20036;-84
2022/06/11 07:37:05;;;;;;;17.50;3.55;;;;;;;;;;5060596;28;20513;-86
2022/06/11 07:39:31;;;;;;;17.48;6.63;;;;;;;;;;5095622;28;20048;-84
2022/06/11 07:41:57;;;;;;;11.93;5.13;;;;;;;;;;5095567;28;20040;-85
2022/06/11 07:44:23;;;;;;;29.35;6.18;;;;;;;;;;5095597;28;20055;-86
2022/06/11 07:46:49;;;;;;;21.10;4.50;;;;;;;;;;5077223;28;20119;-84
2022/06/11 07:49:15;;;;;;;18.58;5.45;;;;;;;;;;5077038;28;20135;-84
2022/06/11 07:51:41;;;;;;;23.08;4.65;;;;;;;;;;5060335;28;20381;-86
2022/06/11 07:54:07;;;;;;;21.15;5.10;;;;;;;;;;5060526;28;20509;-84
2022/06/11 07:56:33;;;;;;;17.10;5.65;;;;;;;;;;5060249;28;20122;-85
2022/06/11 07:59:00;;;;;;;18.50;6.22;;;;;;;;;;5077080;28;20044;-85
2022/06/11 08:01:26;;;;;;;15.82;5.35;;;;;;;;;;5077299;28;20036;-86
2022/06/11 08:03:52;;;;;;;25.55;5.32;;;;;;;;;;5076838;28;20051;-85
2022/06/11 08:06:18;;;;;;;15.82;5.65;;;;;;;;;;5076678;28;20044;-85
2022/06/11 08:08:45;;;;;;;19.38;5.32;;;;;;;;;;5060340;28;20048;-85
2022/06/11 08:11:11;;;;;;;17.27;5.05;;;;;;;;;;5077441;28;20052;-85
2022/06/11 08:13:37;;;;;;;25.35;5.00;;;;;;;;;;5061077;28;20113;-84
2022/06/11 08:16:03;;;;;;;15.93;4.22;;;18.40;99.90;;;;;;5076644;28;20044;-84
2022/06/11 08:18:31;;;;;;;21.20;5.03;;;18.40;99.90;;;;;;5076396;28;20040;-84
2022/06/11 08:20:57;;;;;;;20.98;4.68;;;;;;;;;;5076519;28;20040;-84
2022/06/11 08:23:24;;;;;;;22.15;4.57;;;;;;;;;;5060080;28;20112;-82
2022/06/11 08:25:51;;;;;;;12.00;4.43;;;18.50;99.90;;;;;;5059802;28;20047;-84
2022/06/11 08:28:17;;;;;;;17.70;4.65;;;;;;;;;;5058833;28;20040;-84
2022/06/11 08:30:43;;;;;;;17.52;4.65;;;;;;;;;;5059795;28;20090;-84
2022/06/11 08:33:10;;;;;;;18.50;3.92;;;;;;;;;;5076706;28;20036;-85
2022/06/11 08:35:35;;;;;;;13.07;3.75;;;18.60;99.90;;;;;;5076955;28;20051;-84
2022/06/11 08:38:03;;;;;;;14.88;4.15;;;18.70;99.90;;;;;;5080670;28;20036;-85
2022/06/11 08:40:31;;;;;;;13.05;4.28;;;18.90;99.90;;;;;;5084838;28;20058;-86
2022/06/11 08:43:14;;;;;;;16.48;5.78;;;18.80;99.90;;;;;;5085103;28;20575;-86
2022/06/11 08:45:47;;;;;;;18.48;4.40;;;18.80;99.90;;;;;;5068840;28;20053;-89
2022/06/11 08:48:33;;;;;;;12.55;4.28;;;18.90;99.90;;;;;;5085694;28;20570;-85
2022/06/11 08:51:11;;;;;;;18.40;4.70;;;19.00;99.90;;;;;;5067989;28;20153;-85
2022/06/11 08:53:39;;;;;;;17.65;4.80;;;19.00;99.90;;;;;;5084283;28;20052;-87
2022/06/11 08:56:54;;;;;;;17.13;4.10;;;19.00;99.90;;;;;;5068914;28;20040;-85
2022/06/11 08:59:20;;;;;;;;;;;19.00;99.90;;;;;;5063089;28;20047;-86
2022/06/11 09:01:46;;;;;;;14.93;4.60;;;;;;;;;;5085577;28;19923;-86
2022/06/11 09:04:33;;;;;;;16.48;3.72;;;19.40;99.90;;;;;;5068585;28;20131;-87
2022/06/11 09:07:26;;;;;;;16.02;3.97;;;19.20;99.90;;;;;;5086425;28;20107;-86
2022/06/11 09:10:18;;;;;;;16.70;3.90;;;19.70;99.90;;;;;;5087152;28;20047;-89
2022/06/11 09:13:17;;;;;;;13.13;3.72;;;19.50;99.90;;;;;;5087249;28;20131;-87
2022/06/11 09:15:58;;;;;;;15.95;5.80;;;19.50;99.90;;;;;;5067064;22;20053;-87
2022/06/11 09:18:51;;;;;;;12.02;2.70;;;19.80;99.90;;;;;;5011401;28;20099;-85
2022/06/11 09:21:19;;;;;;;10.50;3.95;;;;;;;;;;5044961;23;20053;-86
2022/06/11 09:24:04;;;;;;;12.52;3.80;;;19.50;99.90;;;;;;5047110;28;20049;-85
2022/06/11 09:26:36;;;;;;;6.47;3.13;;;19.60;99.90;;;;;;5030799;28;20056;-87
2022/06/11 09:29:32;;;;;;;15.18;3.38;;;19.80;99.90;;;;;;5030709;28;20041;-85
2022/06/11 09:32:03;;;;;;;9.82;2.97;;;19.90;99.90;;;;;;5046486;28;20077;-86
2022/06/11 09:34:51;;;;;;;13.60;4.32;;;19.70;99.90;;;;;;5029532;28;20048;-89
2022/06/11 09:37:30;;;;;;;14.20;3.92;;;19.60;99.90;;;;;;5030440;28;20509;-90
2022/06/11 09:44:09;;;;;;;;;;;;;;;;;;;;;
2022/06/11 09:47:23;;;;;;;11.63;3.58;;;19.90;99.90;;;;;;4944164;29;20062;-89
2022/06/11 09:50:32;;;;;;;11.55;3.15;;;19.80;99.90;;;;;;4912492;29;20044;-90
2022/06/11 09:53:13;;;;;;;18.17;3.85;;;;;;;;;;4928344;29;20430;-90
2022/06/11 09:55:47;;;;;;;;;;;19.40;99.90;;;;;;4930245;29;20071;-90
2022/06/11 09:58:58;;;;;;;15.63;3.33;;;19.90;99.90;;;;;;4930453;29;19934;-88
2022/06/11 10:01:48;;;;;;;10.13;3.28;;;20.00;99.90;;;;;;4815590;29;20055;-89
2022/06/11 10:04:50;;;;;;;20.10;6.05;;;19.80;99.90;;;;;;4816221;29;20066;-91
2022/06/11 10:07:30;;;;;;;31.55;8.40;;;20.00;99.90;;;;;;4799181;29;20062;-90
2022/06/11 10:10:12;;;;;;;6.35;2.20;;;20.00;99.90;;;;;;4798899;29;20059;-90
2022/06/11 10:12:52;;;;;;;10.25;2.97;;;20.20;99.90;;;;;;4806691;29;20051;-89
2022/06/11 10:15:27;;;;;;;10.13;2.97;;;20.40;99.90;;;;;;4867631;29;20560;-88
2022/06/11 10:18:19;;;;;;;10.07;3.55;;;20.00;99.90;;;;;;4880548;29;20459;-87
2022/06/11 10:20:55;;;;;;;12.73;3.40;;;20.10;99.90;;;;;;4880066;29;20140;-88
2022/06/11 10:23:42;;;;;;;9.65;3.63;;;20.20;99.90;;;;;;4880002;29;20045;-88
2022/06/11 10:26:15;;;;;;;14.85;2.75;;;;;;;;;;4880084;29;20052;-87
2022/06/11 10:29:10;;;;;;;10.98;3.42;;;20.20;99.90;;;;;;4864384;29;20094;-88
2022/06/11 10:32:18;;;;;;;9.25;2.67;;;20.30;99.90;;;;;;4910657;28;20073;-87
2022/06/11 10:34:55;;;;;;;12.57;3.85;;;20.30;99.90;;;;;;4973344;28;20045;-82
2022/06/11 10:37:37;;;;;;;7.60;2.78;;;20.10;99.90;;;;;;4973178;28;20105;-83
2022/06/11 10:40:03;;;;;;;17.85;3.92;;;;;;;;;;4956972;28;20082;-87
2022/06/11 10:42:43;;;;;;;12.80;3.47;;;20.30;99.90;;;;;;4961118;28;20435;-84
2022/06/11 10:45:14;;;;;;;11.45;3.08;;;20.50;99.90;;;;;;5016670;28;20049;-84
2022/06/11 10:47:46;;;;;;;12.20;3.15;;;20.60;99.90;;;;;;5033616;28;20041;-84
2022/06/11 10:50:12;;;;;;;11.23;3.65;;;;;;;;;;5015662;28;20050;-84
2022/06/11 10:52:57;;;;;;;13.80;3.60;;;20.70;99.90;;;;;;5036520;28;20124;-85
2022/06/11 10:55:53;;;;;;;10.57;3.45;;;20.60;99.90;;;;;;5020131;28;20033;-88
2022/06/11 10:58:24;;;;;;;12.40;3.95;;;20.60;99.90;;;;;;5004149;28;20053;-88
2022/06/11 11:01:01;;;;;;;11.32;3.55;;;20.60;99.90;;;;;;5019339;28;20128;-85
2022/06/11 11:03:47;;;;;;;18.23;4.70;;;20.50;99.90;;;;;;5018875;28;20056;-84
2022/06/11 11:06:28;;;;;;;12.73;2.90;;;20.50;99.90;;;;;;5036173;28;20490;-88
2022/06/11 11:08:58;;;;;;;9.98;2.90;;;20.40;99.90;;;;;;5003055;28;20132;-86
2022/06/11 11:11:31;;;;;;;10.43;2.83;;;20.60;99.90;;;;;;5019377;28;20049;-90
2022/06/11 11:14:15;;;;;;;12.20;2.85;;;20.60;99.90;;;;;;5019094;28;20049;-86
2022/06/11 11:16:46;;;;;;;9.40;3.08;;;;;;;;;;4992296;28;20041;-90
2022/06/11 11:19:19;;;;;;;12.65;3.17;;;20.60;99.90;;;;;;5015875;28;20050;-87
2022/06/11 11:22:17;;;;;;;12.18;2.80;;;20.50;99.90;;;;;;5018365;28;20128;-87
2022/06/11 11:24:52;;;;;;;9.23;2.47;;;20.60;99.90;;;;;;4975378;28;20051;-86
2022/06/11 11:27:30;;;;;;;10.82;3.08;;;20.30;99.90;;;;;;4975404;28;20054;-84
2022/06/11 11:30:14;;;;;;;8.75;2.80;;;20.40;99.90;;;;;;4958962;28;20059;-84
2022/06/11 11:32:40;;;;;;;12.00;2.80;;;;;;;;;;4936799;28;20399;-85
2022/06/11 11:35:22;;;;;;;12.07;2.70;;;20.40;99.90;;;;;;4965873;23;20041;-85
2022/06/11 11:38:13;;;;;;;9.20;2.70;;;20.70;99.90;;;;;;5016424;28;20102;-85
2022/06/11 11:41:03;;;;;;;18.23;3.10;;;20.70;99.90;;;;;;5022121;28;20436;-84
2022/06/11 11:43:42;;;;;;;14.82;3.28;;;20.70;99.90;;;;;;5039419;28;20045;-88
2022/06/11 11:46:14;;;;;;;11.30;3.47;;;20.70;99.90;;;;;;5022258;28;20440;-84
2022/06/11 11:48:57;;;;;;;8.85;3.25;;;21.10;99.90;;;;;;5028967;22;20342;-89
2022/06/11 11:51:47;;;;;;;;;;;;;;;;;;;;;
2022/06/11 11:54:17;;;;;;;10.75;2.63;;;20.90;99.90;;;;;;5074265;28;20048;-87
2022/06/11 11:56:55;;;;;;;8.77;2.38;;;20.90;99.90;;;;;;5058752;28;20056;-89
2022/06/11 12:01:52;;;;;;;8.15;2.58;;;21.10;99.90;;;;;;5097935;22;20056;-92
2022/06/11 12:04:47;;;;;;;9.93;1.80;;;21.00;99.90;;;;;;5041718;28;20534;-90
2022/06/11 12:07:46;;;;;;;8.68;1.98;;;21.00;99.90;;;;;;4943227;28;20050;-89
2022/06/11 12:10:17;;;;;;;6.50;2.10;;;;;;;;;;4975724;28;20141;-88
2022/06/11 12:13:25;;;;;;;9.23;2.15;;;21.10;99.90;;;;;;4942789;28;20050;-89
2022/06/11 12:16:12;;;;;;;12.30;3.38;;;21.10;99.90;;;;;;4944117;28;20054;-89
2022/06/11 12:22:16;;;;;;;9.07;2.00;;;21.30;99.90;;;;;;4972071;28;20130;-88
2022/06/11 12:24:52;;;;;;;5.90;1.80;;;20.90;99.90;;;;;;4936520;29;20055;-89
2022/06/11 12:27:42;;;;;;;9.93;2.83;;;21.10;99.90;;;;;;4904432;29;20141;-89
2022/06/11 12:30:30;;;;;;;6.93;2.08;;;21.10;99.90;;;;;;4920489;29;20051;-89
2022/06/11 12:33:06;;;;;;;8.07;2.25;;;21.10;99.90;;;;;;4920915;29;20421;-88
2022/06/11 12:35:47;;;;;;;6.97;2.50;;;21.10;99.90;;;;;;4935858;29;20062;-89
2022/06/11 12:38:36;;;;;;;12.75;2.45;;;20.90;99.90;;;;;;4976414;28;20045;-89
2022/06/11 12:41:23;;;;;;;7.00;2.42;;;21.00;99.90;;;;;;4981644;28;20430;-91
2022/06/11 12:44:16;;;;;;;9.27;3.05;;;21.10;99.90;;;;;;4997287;28;20108;-89
2022/06/11 12:47:13;;;;;;;10.88;2.60;;;21.10;99.90;;;;;;4980772;28;20120;-88
2022/06/11 12:50:12;;;;;;;4.15;1.67;;;21.20;99.90;;;;;;4997267;28;20058;-88
2022/06/11 12:53:02;;;;;;;5.95;1.75;;;21.50;99.90;;;;;;5012808;28;20103;-88
2022/06/11 12:56:04;;;;;;;7.22;2.70;;;21.30;99.90;;;;;;4995960;28;20096;-90
2022/06/11 12:58:32;;;;;;;6.88;2.63;;;21.40;99.90;;;;;;5013004;28;20120;-90
2022/06/11 13:01:21;;;;;;;11.35;3.00;;;21.40;99.90;;;;;;5008278;28;20051;-89
2022/06/11 13:04:08;;;;;;;11.95;2.67;;;22.00;99.90;;;;;;5040471;28;20428;-91
2022/06/11 13:06:53;;;;;;;7.07;2.60;;;21.40;99.90;;;;;;5056175;28;20091;-86
2022/06/11 13:09:46;;;;;;;9.07;3.30;;;21.50;99.90;;;;;;5074118;28;20040;-85
2022/06/11 13:12:48;;;;;;;10.95;3.38;;;21.40;99.90;;;;;;5038847;28;20052;-85
2022/06/11 13:15:41;;;;;;;11.82;2.53;;;21.30;99.90;;;;;;4955852;28;20064;-88
2022/06/11 13:18:30;;;;;;;11.10;3.67;;;21.40;99.90;;;;;;4941369;28;20210;-85
2022/06/11 13:21:13;;;;;;;14.93;3.72;;;21.20;99.90;;;;;;4957030;28;20058;-86
2022/06/11 13:24:11;;;;;;;7.68;3.13;;;21.30;99.90;;;;;;4941252;28;20058;-87
2022/06/11 13:26:55;;;;;;;6.18;2.42;;;21.60;99.90;;;;;;4956845;28;20573;-85
2022/06/11 13:29:36;;;;;;;9.20;2.83;;;21.70;99.90;;;;;;4957005;28;20059;-88
2022/06/11 13:32:22;;;;;;;9.35;3.42;;;21.70;99.90;;;;;;4956664;28;20058;-86
2022/06/11 13:35:07;;;;;;;8.35;2.88;;;21.80;99.90;;;;;;4957796;28;20125;-86
2022/06/11 13:38:03;;;;;;;10.30;2.72;;;21.60;99.90;;;;;;4957029;28;20082;-86
2022/06/11 13:41:12;;;;;;;11.57;3.28;;;21.90;99.90;;;;;;4956648;28;20146;-84
2022/06/11 13:43:58;;;;;;;7.55;2.60;;;21.80;99.90;;;;;;4956963;28;20129;-85
2022/06/11 13:46:39;;;;;;;10.50;3.00;;;21.80;99.90;;;;;;4899504;29;20141;-88
2022/06/11 13:49:26;;;;;;;9.02;2.97;;;22.50;99.90;;;;;;4929036;28;20125;-87
2022/06/11 13:51:59;;;;;;;11.43;2.88;;;22.20;99.90;;;;;;4960359;28;20058;-89
2022/06/11 13:57:36;;;;;;;7.07;2.80;;;22.40;99.90;;;;;;4976461;28;19944;-87
2022/06/11 14:00:33;;;;;;;10.52;3.33;;;22.10;99.90;;;;;;5004837;23;20082;-85
2022/06/11 14:03:36;;;;;;;11.63;3.20;;;22.20;99.90;;;;;;5061420;28;20043;-85
2022/06/11 14:06:06;;;;;;;10.60;3.20;;;22.50;99.90;;;;;;5061315;28;20075;-86
2022/06/11 14:08:43;;;;;;;9.85;2.67;;;22.60;99.90;;;;;;5060983;28;20040;-84
2022/06/11 14:11:37;;;;;;;9.43;2.88;;;22.40;99.90;;;;;;5061805;28;20079;-85
2022/06/11 14:14:24;;;;;;;;;;;20.00;99.90;;;;;;5061933;28;20090;-86
2022/06/11 14:16:50;;;;;;;8.05;3.40;;;;;;;;;;5061643;28;20015;-90